Terminal Aerodrome Forecast
Issued by NWS

Home | Current Version | Previous Version | Text Only | Print | Product List | Glossary On
Versions: 1 2 3 4 5 6 7 8 9 10 11 12 13 14 15 16 17 18 19 20 21 22
000
FTUS41 KRLX 262321
TAFCKB
TAF
KCKB 262321Z 2700/2724 VRB03KT P6SM SCT050
     FM271000 00000KT 4SM BR SCT050
     FM271400 VRB02KT P6SM SCT050
     FM272000 22004KT 5SM SHRA VCTS SCT050CB=

USA.gov is the U.S. government's official web portal to all federal, state and local government web resources and services.